sensor_id;sensor_type;location;lat;lon;timestamp;temperature;humidity
15455;DHT22;21057;51.024;7.540;2022-07-29T00:02:03;20.80;70.40
15455;DHT22;21057;51.024;7.540;2022-07-29T00:04:29;20.90;68.80
15455;DHT22;21057;51.024;7.540;2022-07-29T00:06:58;21.00;69.90
15455;DHT22;21057;51.024;7.540;2022-07-29T00:09:25;20.90;68.70
15455;DHT22;21057;51.024;7.540;2022-07-29T00:11:52;20.90;69.70
15455;DHT22;21057;51.024;7.540;2022-07-29T00:14:19;20.80;71.60
15455;DHT22;21057;51.024;7.540;2022-07-29T00:16:46;20.80;70.60
15455;DHT22;21057;51.024;7.540;2022-07-29T00:19:13;20.80;69.80
15455;DHT22;21057;51.024;7.540;2022-07-29T00:21:40;20.80;71.00
15455;DHT22;21057;51.024;7.540;2022-07-29T00:24:09;20.80;69.00
15455;DHT22;21057;51.024;7.540;2022-07-29T00:26:36;20.90;70.60
15455;DHT22;21057;51.024;7.540;2022-07-29T00:29:04;20.80;69.10
15455;DHT22;21057;51.024;7.540;2022-07-29T00:31:31;20.90;68.20
15455;DHT22;21057;51.024;7.540;2022-07-29T00:33:58;20.90;68.10
15455;DHT22;21057;51.024;7.540;2022-07-29T00:36:25;20.90;70.00
15455;DHT22;21057;51.024;7.540;2022-07-29T00:38:51;20.80;70.00
15455;DHT22;21057;51.024;7.540;2022-07-29T00:41:19;20.80;68.50
15455;DHT22;21057;51.024;7.540;2022-07-29T00:43:46;20.80;69.60
15455;DHT22;21057;51.024;7.540;2022-07-29T00:46:13;20.90;68.50
15455;DHT22;21057;51.024;7.540;2022-07-29T00:48:40;20.90;68.50
15455;DHT22;21057;51.024;7.540;2022-07-29T00:51:07;20.80;68.40
15455;DHT22;21057;51.024;7.540;2022-07-29T00:53:36;20.70;69.40
15455;DHT22;21057;51.024;7.540;2022-07-29T00:56:04;20.80;68.40
15455;DHT22;21057;51.024;7.540;2022-07-29T00:58:32;20.80;68.90
15455;DHT22;21057;51.024;7.540;2022-07-29T01:00:59;20.70;69.30
15455;DHT22;21057;51.024;7.540;2022-07-29T01:03:26;20.70;69.10
15455;DHT22;21057;51.024;7.540;2022-07-29T01:05:53;20.60;70.50
15455;DHT22;21057;51.024;7.540;2022-07-29T01:08:21;20.60;70.70
15455;DHT22;21057;51.024;7.540;2022-07-29T01:10:49;20.60;68.50
15455;DHT22;21057;51.024;7.540;2022-07-29T01:13:16;20.60;68.80
15455;DHT22;21057;51.024;7.540;2022-07-29T01:15:49;20.60;70.30
15455;DHT22;21057;51.024;7.540;2022-07-29T01:18:22;20.60;69.80
15455;DHT22;21057;51.024;7.540;2022-07-29T01:21:16;20.50;71.30
15455;DHT22;21057;51.024;7.540;2022-07-29T01:24:07;20.50;70.40
15455;DHT22;21057;51.024;7.540;2022-07-29T01:26:42;20.50;69.20
15455;DHT22;21057;51.024;7.540;2022-07-29T01:29:18;20.50;69.20
15455;DHT22;21057;51.024;7.540;2022-07-29T01:31:53;20.50;69.10
15455;DHT22;21057;51.024;7.540;2022-07-29T01:34:27;20.60;67.80
15455;DHT22;21057;51.024;7.540;2022-07-29T01:37:00;20.60;68.80
15455;DHT22;21057;51.024;7.540;2022-07-29T01:39:31;20.40;67.00
15455;DHT22;21057;51.024;7.540;2022-07-29T01:42:04;20.40;68.30
15455;DHT22;21057;51.024;7.540;2022-07-29T01:44:40;20.50;68.60
15455;DHT22;21057;51.024;7.540;2022-07-29T01:47:14;20.50;68.00
15455;DHT22;21057;51.024;7.540;2022-07-29T01:49:47;20.50;67.20
15455;DHT22;21057;51.024;7.540;2022-07-29T01:52:20;20.50;69.30
15455;DHT22;21057;51.024;7.540;2022-07-29T01:54:52;20.40;70.30
15455;DHT22;21057;51.024;7.540;2022-07-29T01:57:24;20.40;70.60
15455;DHT22;21057;51.024;7.540;2022-07-29T01:59:54;20.30;68.50
15455;DHT22;21057;51.024;7.540;2022-07-29T02:02:23;20.30;69.20
15455;DHT22;21057;51.024;7.540;2022-07-29T02:04:50;20.30;70.50
15455;DHT22;21057;51.024;7.540;2022-07-29T02:07:21;20.20;73.60
15455;DHT22;21057;51.024;7.540;2022-07-29T02:09:49;20.10;70.20
15455;DHT22;21057;51.024;7.540;2022-07-29T02:12:18;20.10;70.90
15455;DHT22;21057;51.024;7.540;2022-07-29T02:14:48;20.20;69.70
15455;DHT22;21057;51.024;7.540;2022-07-29T02:17:21;20.20;71.00
15455;DHT22;21057;51.024;7.540;2022-07-29T02:19:50;20.10;68.80
15455;DHT22;21057;51.024;7.540;2022-07-29T02:22:18;20.10;70.00
15455;DHT22;21057;51.024;7.540;2022-07-29T02:24:46;20.20;70.00
15455;DHT22;21057;51.024;7.540;2022-07-29T02:27:14;20.30;68.20
15455;DHT22;21057;51.024;7.540;2022-07-29T02:29:42;20.30;68.00
15455;DHT22;21057;51.024;7.540;2022-07-29T02:32:10;20.20;68.20
15455;DHT22;21057;51.024;7.540;2022-07-29T02:34:41;20.20;68.40
15455;DHT22;21057;51.024;7.540;2022-07-29T02:37:10;20.10;68.80
15455;DHT22;21057;51.024;7.540;2022-07-29T02:39:41;20.10;68.70
15455;DHT22;21057;51.024;7.540;2022-07-29T02:42:11;20.00;71.10
15455;DHT22;21057;51.024;7.540;2022-07-29T02:44:39;20.00;70.50
15455;DHT22;21057;51.024;7.540;2022-07-29T02:47:12;19.90;70.30
15455;DHT22;21057;51.024;7.540;2022-07-29T02:49:48;19.90;69.10
15455;DHT22;21057;51.024;7.540;2022-07-29T02:52:21;19.90;70.40
15455;DHT22;21057;51.024;7.540;2022-07-29T02:54:53;19.90;70.70
15455;DHT22;21057;51.024;7.540;2022-07-29T02:57:26;19.90;69.90
15455;DHT22;21057;51.024;7.540;2022-07-29T02:59:58;19.90;70.00
15455;DHT22;21057;51.024;7.540;2022-07-29T03:02:26;19.90;70.90
15455;DHT22;21057;51.024;7.540;2022-07-29T03:04:55;19.90;70.10
15455;DHT22;21057;51.024;7.540;2022-07-29T03:07:24;19.90;70.40
15455;DHT22;21057;51.024;7.540;2022-07-29T03:09:53;20.00;70.20
15455;DHT22;21057;51.024;7.540;2022-07-29T03:12:21;20.00;69.80
15455;DHT22;21057;51.024;7.540;2022-07-29T03:14:48;20.10;68.90
15455;DHT22;21057;51.024;7.540;2022-07-29T03:17:15;20.10;69.00
15455;DHT22;21057;51.024;7.540;2022-07-29T03:19:43;20.10;69.60
15455;DHT22;21057;51.024;7.540;2022-07-29T03:22:12;19.90;70.30
15455;DHT22;21057;51.024;7.540;2022-07-29T03:24:38;19.90;70.30
15455;DHT22;21057;51.024;7.540;2022-07-29T03:27:05;20.00;69.30
15455;DHT22;21057;51.024;7.540;2022-07-29T03:29:33;20.00;69.20
15455;DHT22;21057;51.024;7.540;2022-07-29T03:32:01;20.00;69.40
15455;DHT22;21057;51.024;7.540;2022-07-29T03:34:28;19.90;70.80
15455;DHT22;21057;51.024;7.540;2022-07-29T03:36:55;20.00;70.20
15455;DHT22;21057;51.024;7.540;2022-07-29T03:39:27;19.90;69.10
15455;DHT22;21057;51.024;7.540;2022-07-29T03:41:58;19.90;69.20
15455;DHT22;21057;51.024;7.540;2022-07-29T03:44:26;19.90;69.30
15455;DHT22;21057;51.024;7.540;2022-07-29T03:46:56;20.20;67.70
15455;DHT22;21057;51.024;7.540;2022-07-29T03:49:26;20.30;67.00
15455;DHT22;21057;51.024;7.540;2022-07-29T03:51:53;20.40;67.60
15455;DHT22;21057;51.024;7.540;2022-07-29T03:54:21;20.40;66.80
15455;DHT22;21057;51.024;7.540;2022-07-29T03:56:51;20.40;66.80
15455;DHT22;21057;51.024;7.540;2022-07-29T03:59:20;20.50;66.60
15455;DHT22;21057;51.024;7.540;2022-07-29T04:01:48;20.40;68.10
15455;DHT22;21057;51.024;7.540;2022-07-29T04:04:15;20.30;69.70
15455;DHT22;21057;51.024;7.540;2022-07-29T04:06:44;20.40;67.50
15455;DHT22;21057;51.024;7.540;2022-07-29T04:09:12;20.30;68.10
15455;DHT22;21057;51.024;7.540;2022-07-29T04:11:40;20.30;68.70
15455;DHT22;21057;51.024;7.540;2022-07-29T04:14:08;20.30;68.60
15455;DHT22;21057;51.024;7.540;2022-07-29T04:16:35;20.20;69.60
15455;DHT22;21057;51.024;7.540;2022-07-29T04:19:02;20.40;67.80
15455;DHT22;21057;51.024;7.540;2022-07-29T04:21:29;20.30;70.30
15455;DHT22;21057;51.024;7.540;2022-07-29T04:23:56;20.30;68.60
15455;DHT22;21057;51.024;7.540;2022-07-29T04:26:23;20.40;67.50
15455;DHT22;21057;51.024;7.540;2022-07-29T04:28:50;20.50;66.80
15455;DHT22;21057;51.024;7.540;2022-07-29T04:31:18;20.40;67.30
15455;DHT22;21057;51.024;7.540;2022-07-29T04:33:45;20.40;68.80
15455;DHT22;21057;51.024;7.540;2022-07-29T04:36:12;20.40;67.40
15455;DHT22;21057;51.024;7.540;2022-07-29T04:38:39;20.50;67.80
15455;DHT22;21057;51.024;7.540;2022-07-29T04:41:06;20.50;67.30
15455;DHT22;21057;51.024;7.540;2022-07-29T04:43:34;20.40;69.60
15455;DHT22;21057;51.024;7.540;2022-07-29T04:46:01;20.20;69.00
15455;DHT22;21057;51.024;7.540;2022-07-29T04:48:29;20.20;68.70
15455;DHT22;21057;51.024;7.540;2022-07-29T04:50:56;20.30;69.50
15455;DHT22;21057;51.024;7.540;2022-07-29T04:53:23;20.40;69.20
15455;DHT22;21057;51.024;7.540;2022-07-29T04:55:50;20.50;67.90
15455;DHT22;21057;51.024;7.540;2022-07-29T04:58:17;20.50;69.40
15455;DHT22;21057;51.024;7.540;2022-07-29T05:00:44;20.50;73.30
15455;DHT22;21057;51.024;7.540;2022-07-29T05:03:11;20.50;75.00
15455;DHT22;21057;51.024;7.540;2022-07-29T05:05:39;20.40;73.60
15455;DHT22;21057;51.024;7.540;2022-07-29T05:08:06;20.30;72.80
15455;DHT22;21057;51.024;7.540;2022-07-29T05:10:33;20.30;71.10
15455;DHT22;21057;51.024;7.540;2022-07-29T05:13:04;20.20;72.40
15455;DHT22;21057;51.024;7.540;2022-07-29T05:15:31;20.20;70.40
15455;DHT22;21057;51.024;7.540;2022-07-29T05:17:58;20.40;72.60
15455;DHT22;21057;51.024;7.540;2022-07-29T05:20:25;20.30;73.20
15455;DHT22;21057;51.024;7.540;2022-07-29T05:22:55;20.30;73.00
15455;DHT22;21057;51.024;7.540;2022-07-29T05:25:23;20.20;72.50
15455;DHT22;21057;51.024;7.540;2022-07-29T05:27:50;20.10;72.60
15455;DHT22;21057;51.024;7.540;2022-07-29T05:30:17;20.10;77.90
15455;DHT22;21057;51.024;7.540;2022-07-29T05:32:44;20.10;77.50
15455;DHT22;21057;51.024;7.540;2022-07-29T05:35:11;20.20;74.70
15455;DHT22;21057;51.024;7.540;2022-07-29T05:37:39;20.30;75.90
15455;DHT22;21057;51.024;7.540;2022-07-29T05:40:08;20.40;74.70
15455;DHT22;21057;51.024;7.540;2022-07-29T05:42:35;20.20;76.10
15455;DHT22;21057;51.024;7.540;2022-07-29T05:45:03;20.20;77.70
15455;DHT22;21057;51.024;7.540;2022-07-29T05:47:30;20.30;77.80
15455;DHT22;21057;51.024;7.540;2022-07-29T05:49:57;20.40;74.70
15455;DHT22;21057;51.024;7.540;2022-07-29T05:52:24;20.40;76.20
15455;DHT22;21057;51.024;7.540;2022-07-29T05:54:51;20.60;75.60
15455;DHT22;21057;51.024;7.540;2022-07-29T05:57:21;20.70;76.60
15455;DHT22;21057;51.024;7.540;2022-07-29T05:59:48;20.90;75.70
15455;DHT22;21057;51.024;7.540;2022-07-29T06:02:16;21.10;75.20
15455;DHT22;21057;51.024;7.540;2022-07-29T06:04:43;21.10;74.10
15455;DHT22;21057;51.024;7.540;2022-07-29T06:07:11;21.20;74.00
15455;DHT22;21057;51.024;7.540;2022-07-29T06:09:38;21.30;75.20
15455;DHT22;21057;51.024;7.540;2022-07-29T06:12:05;21.70;71.40
15455;DHT22;21057;51.024;7.540;2022-07-29T06:14:33;21.50;74.00
15455;DHT22;21057;51.024;7.540;2022-07-29T06:17:00;21.60;73.50
15455;DHT22;21057;51.024;7.540;2022-07-29T06:19:27;21.60;73.70
15455;DHT22;21057;51.024;7.540;2022-07-29T06:21:54;21.80;70.70
15455;DHT22;21057;51.024;7.540;2022-07-29T06:24:21;21.70;71.40
15455;DHT22;21057;51.024;7.540;2022-07-29T06:26:48;21.80;70.40
15455;DHT22;21057;51.024;7.540;2022-07-29T06:29:15;21.50;72.90
15455;DHT22;21057;51.024;7.540;2022-07-29T06:31:43;21.60;71.70
15455;DHT22;21057;51.024;7.540;2022-07-29T06:34:10;21.60;74.50
15455;DHT22;21057;51.024;7.540;2022-07-29T06:36:38;21.80;71.50
15455;DHT22;21057;51.024;7.540;2022-07-29T06:39:05;21.60;71.60
15455;DHT22;21057;51.024;7.540;2022-07-29T06:41:33;21.90;71.70
15455;DHT22;21057;51.024;7.540;2022-07-29T06:44:00;22.20;71.00
15455;DHT22;21057;51.024;7.540;2022-07-29T06:46:27;22.00;73.10
15455;DHT22;21057;51.024;7.540;2022-07-29T06:48:55;22.20;74.00
15455;DHT22;21057;51.024;7.540;2022-07-29T06:51:22;22.50;72.10
15455;DHT22;21057;51.024;7.540;2022-07-29T06:53:50;22.20;70.90
15455;DHT22;21057;51.024;7.540;2022-07-29T06:56:17;22.20;71.10
15455;DHT22;21057;51.024;7.540;2022-07-29T06:58:44;22.50;71.50
15455;DHT22;21057;51.024;7.540;2022-07-29T07:01:11;22.90;69.30
15455;DHT22;21057;51.024;7.540;2022-07-29T07:03:38;22.80;68.70
15455;DHT22;21057;51.024;7.540;2022-07-29T07:06:06;22.90;70.10
15455;DHT22;21057;51.024;7.540;2022-07-29T07:08:33;23.00;69.60
15455;DHT22;21057;51.024;7.540;2022-07-29T07:11:00;23.10;68.30
15455;DHT22;21057;51.024;7.540;2022-07-29T07:13:27;23.20;67.40
15455;DHT22;21057;51.024;7.540;2022-07-29T07:16:00;22.90;69.00
15455;DHT22;21057;51.024;7.540;2022-07-29T07:18:27;22.90;70.00
15455;DHT22;21057;51.024;7.540;2022-07-29T07:20:54;22.90;67.40
15455;DHT22;21057;51.024;7.540;2022-07-29T07:23:22;22.60;68.60
15455;DHT22;21057;51.024;7.540;2022-07-29T07:25:50;22.40;69.50
15455;DHT22;21057;51.024;7.540;2022-07-29T07:28:17;22.60;72.10
15455;DHT22;21057;51.024;7.540;2022-07-29T07:30:45;23.00;70.40
15455;DHT22;21057;51.024;7.540;2022-07-29T07:33:12;23.20;72.30
15455;DHT22;21057;51.024;7.540;2022-07-29T07:35:39;23.30;68.10
15455;DHT22;21057;51.024;7.540;2022-07-29T07:38:06;23.60;70.40
15455;DHT22;21057;51.024;7.540;2022-07-29T07:40:35;23.90;70.10
15455;DHT22;21057;51.024;7.540;2022-07-29T07:43:02;24.00;67.80
15455;DHT22;21057;51.024;7.540;2022-07-29T07:45:29;24.10;68.20
15455;DHT22;21057;51.024;7.540;2022-07-29T07:47:58;24.40;66.70
15455;DHT22;21057;51.024;7.540;2022-07-29T07:50:25;24.50;66.10
15455;DHT22;21057;51.024;7.540;2022-07-29T07:52:54;24.20;65.10
15455;DHT22;21057;51.024;7.540;2022-07-29T07:55:23;24.30;67.00
15455;DHT22;21057;51.024;7.540;2022-07-29T07:57:51;24.20;67.10
15455;DHT22;21057;51.024;7.540;2022-07-29T08:00:18;24.20;64.10
15455;DHT22;21057;51.024;7.540;2022-07-29T08:02:45;24.00;66.60
15455;DHT22;21057;51.024;7.540;2022-07-29T08:05:13;24.00;66.40
15455;DHT22;21057;51.024;7.540;2022-07-29T08:07:44;23.60;64.00
15455;DHT22;21057;51.024;7.540;2022-07-29T08:10:11;23.50;64.90
15455;DHT22;21057;51.024;7.540;2022-07-29T08:12:38;23.70;67.70
15455;DHT22;21057;51.024;7.540;2022-07-29T08:15:08;23.60;64.50
15455;DHT22;21057;51.024;7.540;2022-07-29T08:17:35;23.70;65.90
15455;DHT22;21057;51.024;7.540;2022-07-29T08:20:02;23.70;65.20
15455;DHT22;21057;51.024;7.540;2022-07-29T08:22:29;23.80;64.00
15455;DHT22;21057;51.024;7.540;2022-07-29T08:24:56;24.20;64.90
15455;DHT22;21057;51.024;7.540;2022-07-29T08:27:23;24.50;66.20
15455;DHT22;21057;51.024;7.540;2022-07-29T08:29:52;24.70;64.50
15455;DHT22;21057;51.024;7.540;2022-07-29T08:32:22;24.60;62.10
15455;DHT22;21057;51.024;7.540;2022-07-29T08:34:49;24.20;61.00
15455;DHT22;21057;51.024;7.540;2022-07-29T08:37:18;24.40;65.00
15455;DHT22;21057;51.024;7.540;2022-07-29T08:39:45;24.60;64.10
15455;DHT22;21057;51.024;7.540;2022-07-29T08:42:12;24.70;65.40
15455;DHT22;21057;51.024;7.540;2022-07-29T08:44:40;25.10;64.70
15455;DHT22;21057;51.024;7.540;2022-07-29T08:47:08;25.30;65.80
15455;DHT22;21057;51.024;7.540;2022-07-29T08:49:37;25.50;66.10
15455;DHT22;21057;51.024;7.540;2022-07-29T08:52:04;25.80;64.50
15455;DHT22;21057;51.024;7.540;2022-07-29T08:54:32;25.70;58.60
15455;DHT22;21057;51.024;7.540;2022-07-29T08:56:59;25.40;60.20
15455;DHT22;21057;51.024;7.540;2022-07-29T08:59:27;25.50;60.20
15455;DHT22;21057;51.024;7.540;2022-07-29T09:01:57;25.00;59.80
15455;DHT22;21057;51.024;7.540;2022-07-29T09:04:30;25.20;63.30
15455;DHT22;21057;51.024;7.540;2022-07-29T09:07:00;25.80;61.10
15455;DHT22;21057;51.024;7.540;2022-07-29T09:09:30;26.00;62.60
15455;DHT22;21057;51.024;7.540;2022-07-29T09:11:59;26.30;62.40
15455;DHT22;21057;51.024;7.540;2022-07-29T09:14:26;26.50;59.90
15455;DHT22;21057;51.024;7.540;2022-07-29T09:16:54;26.80;58.50
15455;DHT22;21057;51.024;7.540;2022-07-29T09:19:23;26.20;59.20
15455;DHT22;21057;51.024;7.540;2022-07-29T09:21:51;25.90;60.50
15455;DHT22;21057;51.024;7.540;2022-07-29T09:24:35;25.90;61.60
15455;DHT22;21057;51.024;7.540;2022-07-29T09:27:17;25.80;62.20
15455;DHT22;21057;51.024;7.540;2022-07-29T09:29:45;26.00;65.10
15455;DHT22;21057;51.024;7.540;2022-07-29T09:32:12;25.90;61.80
15455;DHT22;21057;51.024;7.540;2022-07-29T09:34:39;25.90;59.90
15455;DHT22;21057;51.024;7.540;2022-07-29T09:37:06;26.20;64.00
15455;DHT22;21057;51.024;7.540;2022-07-29T09:39:36;26.40;60.70
15455;DHT22;21057;51.024;7.540;2022-07-29T09:42:05;26.00;62.30
15455;DHT22;21057;51.024;7.540;2022-07-29T09:44:46;25.80;60.00
15455;DHT22;21057;51.024;7.540;2022-07-29T09:47:14;26.00;65.30
15455;DHT22;21057;51.024;7.540;2022-07-29T09:49:52;26.20;61.50
15455;DHT22;21057;51.024;7.540;2022-07-29T09:52:21;26.10;63.30
15455;DHT22;21057;51.024;7.540;2022-07-29T09:54:49;26.10;61.60
15455;DHT22;21057;51.024;7.540;2022-07-29T09:57:24;26.10;65.10
15455;DHT22;21057;51.024;7.540;2022-07-29T09:59:58;26.20;64.40
15455;DHT22;21057;51.024;7.540;2022-07-29T10:02:30;26.30;59.40
15455;DHT22;21057;51.024;7.540;2022-07-29T10:04:57;26.00;60.20
15455;DHT22;21057;51.024;7.540;2022-07-29T10:07:25;26.00;61.00
15455;DHT22;21057;51.024;7.540;2022-07-29T10:09:55;26.10;62.60
15455;DHT22;21057;51.024;7.540;2022-07-29T10:12:23;26.00;58.80
15455;DHT22;21057;51.024;7.540;2022-07-29T10:14:51;26.00;61.60
15455;DHT22;21057;51.024;7.540;2022-07-29T10:17:18;26.40;64.00
15455;DHT22;21057;51.024;7.540;2022-07-29T10:19:46;27.00;61.10
15455;DHT22;21057;51.024;7.540;2022-07-29T10:22:14;27.50;60.20
15455;DHT22;21057;51.024;7.540;2022-07-29T10:24:41;28.20;56.80
15455;DHT22;21057;51.024;7.540;2022-07-29T10:27:09;28.90;57.10
15455;DHT22;21057;51.024;7.540;2022-07-29T10:29:36;29.00;54.90
15455;DHT22;21057;51.024;7.540;2022-07-29T10:32:16;29.10;54.50
15455;DHT22;21057;51.024;7.540;2022-07-29T10:34:57;29.10;57.20
15455;DHT22;21057;51.024;7.540;2022-07-29T10:37:37;29.20;54.00
15455;DHT22;21057;51.024;7.540;2022-07-29T10:40:21;28.80;55.50
15455;DHT22;21057;51.024;7.540;2022-07-29T10:43:16;29.20;55.40
15455;DHT22;21057;51.024;7.540;2022-07-29T10:45:45;29.70;57.90
15455;DHT22;21057;51.024;7.540;2022-07-29T10:48:12;30.10;58.00
15455;DHT22;21057;51.024;7.540;2022-07-29T10:50:53;30.40;56.90
15455;DHT22;21057;51.024;7.540;2022-07-29T10:53:21;30.80;54.80
15455;DHT22;21057;51.024;7.540;2022-07-29T10:55:49;30.60;52.40
15455;DHT22;21057;51.024;7.540;2022-07-29T10:58:20;30.90;53.90
15455;DHT22;21057;51.024;7.540;2022-07-29T11:00:49;30.90;53.00
15455;DHT22;21057;51.024;7.540;2022-07-29T11:03:42;30.90;53.80
15455;DHT22;21057;51.024;7.540;2022-07-29T11:06:10;30.90;52.20
15455;DHT22;21057;51.024;7.540;2022-07-29T11:08:37;31.30;50.70
15455;DHT22;21057;51.024;7.540;2022-07-29T11:11:31;30.60;51.90
15455;DHT22;21057;51.024;7.540;2022-07-29T11:13:59;30.90;51.30
15455;DHT22;21057;51.024;7.540;2022-07-29T11:16:59;31.20;52.50
15455;DHT22;21057;51.024;7.540;2022-07-29T11:19:28;31.40;51.80
15455;DHT22;21057;51.024;7.540;2022-07-29T11:21:54;31.10;51.40
15455;DHT22;21057;51.024;7.540;2022-07-29T11:24:24;31.40;53.80
15455;DHT22;21057;51.024;7.540;2022-07-29T11:27:08;31.50;52.10
15455;DHT22;21057;51.024;7.540;2022-07-29T11:29:39;31.90;50.90
15455;DHT22;21057;51.024;7.540;2022-07-29T11:32:10;32.10;51.70
15455;DHT22;21057;51.024;7.540;2022-07-29T11:34:38;32.30;50.00
15455;DHT22;21057;51.024;7.540;2022-07-29T11:37:19;32.40;51.40
15455;DHT22;21057;51.024;7.540;2022-07-29T11:42:44;32.70;48.40
15455;DHT22;21057;51.024;7.540;2022-07-29T11:45:18;33.10;49.40
15455;DHT22;21057;51.024;7.540;2022-07-29T11:47:52;33.20;48.10
15455;DHT22;21057;51.024;7.540;2022-07-29T11:50:29;33.50;49.00
15455;DHT22;21057;51.024;7.540;2022-07-29T11:52:56;32.90;46.50
15455;DHT22;21057;51.024;7.540;2022-07-29T11:55:24;32.20;46.70
15455;DHT22;21057;51.024;7.540;2022-07-29T11:57:52;32.20;47.30
15455;DHT22;21057;51.024;7.540;2022-07-29T12:00:26;32.30;51.60
15455;DHT22;21057;51.024;7.540;2022-07-29T12:02:55;32.70;49.50
15455;DHT22;21057;51.024;7.540;2022-07-29T12:05:31;32.50;48.40
15455;DHT22;21057;51.024;7.540;2022-07-29T12:08:05;32.70;49.40
15455;DHT22;21057;51.024;7.540;2022-07-29T12:10:32;32.90;48.20
15455;DHT22;21057;51.024;7.540;2022-07-29T12:12:59;33.00;48.50
15455;DHT22;21057;51.024;7.540;2022-07-29T12:15:27;33.30;49.40
15455;DHT22;21057;51.024;7.540;2022-07-29T12:17:54;33.30;50.20
15455;DHT22;21057;51.024;7.540;2022-07-29T12:20:26;33.50;49.40
15455;DHT22;21057;51.024;7.540;2022-07-29T12:22:54;33.10;46.30
15455;DHT22;21057;51.024;7.540;2022-07-29T12:25:23;32.90;47.00
15455;DHT22;21057;51.024;7.540;2022-07-29T12:27:59;33.10;47.50
15455;DHT22;21057;51.024;7.540;2022-07-29T12:30:40;33.00;48.20
15455;DHT22;21057;51.024;7.540;2022-07-29T12:33:12;32.60;47.20
15455;DHT22;21057;51.024;7.540;2022-07-29T12:35:40;32.30;49.00
15455;DHT22;21057;51.024;7.540;2022-07-29T12:38:10;32.20;48.80
15455;DHT22;21057;51.024;7.540;2022-07-29T12:40:38;32.20;48.30
15455;DHT22;21057;51.024;7.540;2022-07-29T12:43:09;32.30;48.20
15455;DHT22;21057;51.024;7.540;2022-07-29T12:45:38;32.70;49.20
15455;DHT22;21057;51.024;7.540;2022-07-29T12:48:06;32.00;48.00
15455;DHT22;21057;51.024;7.540;2022-07-29T12:50:35;32.20;50.30
15455;DHT22;21057;51.024;7.540;2022-07-29T12:53:09;32.50;47.10
15455;DHT22;21057;51.024;7.540;2022-07-29T12:55:41;32.60;47.50
15455;DHT22;21057;51.024;7.540;2022-07-29T12:58:08;32.70;48.20
15455;DHT22;21057;51.024;7.540;2022-07-29T13:00:35;32.40;46.50
15455;DHT22;21057;51.024;7.540;2022-07-29T13:03:03;32.80;50.00
15455;DHT22;21057;51.024;7.540;2022-07-29T13:05:40;33.50;49.20
15455;DHT22;21057;51.024;7.540;2022-07-29T13:08:15;33.50;48.40
15455;DHT22;21057;51.024;7.540;2022-07-29T13:10:42;33.20;49.20
15455;DHT22;21057;51.024;7.540;2022-07-29T13:13:10;33.30;49.10
15455;DHT22;21057;51.024;7.540;2022-07-29T13:15:38;33.40;46.90
15455;DHT22;21057;51.024;7.540;2022-07-29T13:18:26;33.50;49.30
15455;DHT22;21057;51.024;7.540;2022-07-29T13:20:54;33.20;46.00
15455;DHT22;21057;51.024;7.540;2022-07-29T13:23:21;33.20;47.50
15455;DHT22;21057;51.024;7.540;2022-07-29T13:25:48;33.00;49.30
15455;DHT22;21057;51.024;7.540;2022-07-29T13:28:15;33.00;47.60
15455;DHT22;21057;51.024;7.540;2022-07-29T13:30:43;32.40;48.60
15455;DHT22;21057;51.024;7.540;2022-07-29T13:33:11;32.40;50.40
15455;DHT22;21057;51.024;7.540;2022-07-29T13:35:38;32.10;51.10
15455;DHT22;21057;51.024;7.540;2022-07-29T13:38:05;31.80;51.40
15455;DHT22;21057;51.024;7.540;2022-07-29T13:40:32;31.00;52.60
15455;DHT22;21057;51.024;7.540;2022-07-29T13:43:00;30.40;54.10
15455;DHT22;21057;51.024;7.540;2022-07-29T13:45:27;29.90;55.60
15455;DHT22;21057;51.024;7.540;2022-07-29T13:47:54;29.50;57.40
15455;DHT22;21057;51.024;7.540;2022-07-29T13:50:23;28.80;57.60
15455;DHT22;21057;51.024;7.540;2022-07-29T13:52:49;28.80;59.30
15455;DHT22;21057;51.024;7.540;2022-07-29T13:55:16;29.10;58.20
15455;DHT22;21057;51.024;7.540;2022-07-29T13:57:43;29.40;58.10
15455;DHT22;21057;51.024;7.540;2022-07-29T14:00:11;29.30;58.10
15455;DHT22;21057;51.024;7.540;2022-07-29T14:02:38;28.50;59.30
15455;DHT22;21057;51.024;7.540;2022-07-29T14:05:06;28.00;60.70
15455;DHT22;21057;51.024;7.540;2022-07-29T14:07:35;28.00;61.30
15455;DHT22;21057;51.024;7.540;2022-07-29T14:10:02;28.00;61.60
15455;DHT22;21057;51.024;7.540;2022-07-29T14:12:29;28.20;61.90
15455;DHT22;21057;51.024;7.540;2022-07-29T14:14:56;27.90;62.10
15455;DHT22;21057;51.024;7.540;2022-07-29T14:17:23;27.90;63.20
15455;DHT22;21057;51.024;7.540;2022-07-29T14:19:50;28.10;62.80
15455;DHT22;21057;51.024;7.540;2022-07-29T14:22:17;27.80;62.80
15455;DHT22;21057;51.024;7.540;2022-07-29T14:24:45;27.80;63.20
15455;DHT22;21057;51.024;7.540;2022-07-29T14:27:12;27.50;63.30
15455;DHT22;21057;51.024;7.540;2022-07-29T14:29:39;27.40;64.30
15455;DHT22;21057;51.024;7.540;2022-07-29T14:32:07;27.50;65.20
15455;DHT22;21057;51.024;7.540;2022-07-29T14:34:34;27.40;64.70
15455;DHT22;21057;51.024;7.540;2022-07-29T14:37:01;27.80;64.70
15455;DHT22;21057;51.024;7.540;2022-07-29T14:39:30;28.40;63.80
15455;DHT22;21057;51.024;7.540;2022-07-29T14:41:59;28.60;61.90
15455;DHT22;21057;51.024;7.540;2022-07-29T14:44:26;28.50;62.90
15455;DHT22;21057;51.024;7.540;2022-07-29T14:46:56;28.90;64.40
15455;DHT22;21057;51.024;7.540;2022-07-29T14:49:24;29.20;61.90
15455;DHT22;21057;51.024;7.540;2022-07-29T14:51:51;28.10;63.60
15455;DHT22;21057;51.024;7.540;2022-07-29T14:54:18;28.00;62.90
15455;DHT22;21057;51.024;7.540;2022-07-29T14:56:46;28.50;61.90
15455;DHT22;21057;51.024;7.540;2022-07-29T14:59:16;29.10;62.30
15455;DHT22;21057;51.024;7.540;2022-07-29T15:01:44;29.30;59.70
15455;DHT22;21057;51.024;7.540;2022-07-29T15:04:11;28.50;60.10
15455;DHT22;21057;51.024;7.540;2022-07-29T15:06:38;28.50;62.60
15455;DHT22;21057;51.024;7.540;2022-07-29T15:09:05;28.90;60.40
15455;DHT22;21057;51.024;7.540;2022-07-29T15:11:32;29.10;60.60
15455;DHT22;21057;51.024;7.540;2022-07-29T15:13:59;28.50;58.90
15455;DHT22;21057;51.024;7.540;2022-07-29T15:16:27;28.10;61.50
15455;DHT22;21057;51.024;7.540;2022-07-29T15:18:54;28.20;61.90
15455;DHT22;21057;51.024;7.540;2022-07-29T15:21:23;28.60;60.80
15455;DHT22;21057;51.024;7.540;2022-07-29T15:23:50;28.90;59.50
15455;DHT22;21057;51.024;7.540;2022-07-29T15:26:16;29.30;60.40
15455;DHT22;21057;51.024;7.540;2022-07-29T15:28:44;29.40;59.40
15455;DHT22;21057;51.024;7.540;2022-07-29T15:31:11;29.30;60.70
15455;DHT22;21057;51.024;7.540;2022-07-29T15:33:40;29.70;59.10
15455;DHT22;21057;51.024;7.540;2022-07-29T15:36:07;29.60;57.80
15455;DHT22;21057;51.024;7.540;2022-07-29T15:38:34;29.00;60.80
15455;DHT22;21057;51.024;7.540;2022-07-29T15:41:01;29.10;60.10
15455;DHT22;21057;51.024;7.540;2022-07-29T15:43:28;29.00;60.20
15455;DHT22;21057;51.024;7.540;2022-07-29T15:45:54;28.90;59.50